createdAt,value
2017-03-09T00:00:56.915Z,8.5
2017-03-09T00:01:58.761Z,8.5
2017-03-09T00:03:00.687Z,8.5
2017-03-09T00:04:02.547Z,8.6
2017-03-09T00:05:05.290Z,8.5
2017-03-09T00:06:07.153Z,8.5
2017-03-09T00:07:09.026Z,8.5
2017-03-09T00:08:10.885Z,8.5
2017-03-09T00:09:12.742Z,8.5
2017-03-09T00:10:14.646Z,8.5
2017-03-09T00:11:17.269Z,8.5
2017-03-09T00:12:19.157Z,8.6
2017-03-09T00:13:21.026Z,8.6
2017-03-09T00:14:23.314Z,8.6
2017-03-09T00:15:25.160Z,8.6
2017-03-09T00:16:27.016Z,8.6
2017-03-09T00:17:28.904Z,8.6
2017-03-09T00:18:30.800Z,8.7
2017-03-09T00:19:33.096Z,8.7
2017-03-09T00:20:34.965Z,8.7
2017-03-09T00:21:37.297Z,8.7
2017-03-09T00:22:39.189Z,8.7
2017-03-09T00:23:41.476Z,8.7
2017-03-09T00:24:43.763Z,8.7
2017-03-09T00:25:45.614Z,8.7
2017-03-09T00:26:47.480Z,8.7
2017-03-09T00:27:49.347Z,8.7
2017-03-09T00:28:51.644Z,8.8
2017-03-09T00:29:53.479Z,8.8
2017-03-09T00:30:55.383Z,8.8
2017-03-09T00:31:57.682Z,8.8
2017-03-09T00:32:59.796Z,8.8
2017-03-09T00:34:02.072Z,8.8
2017-03-09T00:35:04.351Z,8.8
2017-03-09T00:36:06.201Z,8.8
2017-03-09T00:37:08.063Z,8.8
2017-03-09T00:38:10.358Z,8.8
2017-03-09T00:39:12.222Z,8.8
2017-03-09T00:40:14.105Z,8.8
2017-03-09T00:41:16.011Z,8.8
2017-03-09T00:42:18.321Z,8.8
2017-03-09T00:43:21.048Z,8.8
2017-03-09T00:44:22.940Z,8.8
2017-03-09T00:45:24.795Z,8.8
2017-03-09T00:46:26.666Z,8.8
2017-03-09T00:47:28.936Z,8.8
2017-03-09T00:48:31.223Z,8.8
2017-03-09T00:49:33.091Z,8.8
2017-03-09T00:50:35.394Z,8.8
2017-03-09T00:51:37.689Z,8.8
2017-03-09T00:52:39.561Z,8.7
2017-03-09T00:53:41.422Z,8.8
2017-03-09T00:54:43.275Z,8.8
2017-03-09T00:55:45.140Z,8.7
2017-03-09T00:56:47.008Z,8.7
2017-03-09T00:57:48.901Z,8.7
2017-03-09T00:58:50.759Z,8.7
2017-03-09T00:59:53.053Z,8.7
2017-03-09T01:00:54.922Z,8.7
2017-03-09T01:01:56.797Z,8.6
2017-03-09T01:02:58.654Z,8.6
2017-03-09T01:04:00.517Z,8.6
2017-03-09T01:05:03.237Z,8.6
2017-03-09T01:06:05.087Z,8.6
2017-03-09T01:07:06.939Z,8.6
2017-03-09T01:08:08.789Z,8.6
2017-03-09T01:09:10.644Z,8.6
2017-03-09T01:10:12.919Z,8.6
2017-03-09T01:11:14.772Z,8.6
2017-03-09T01:12:16.639Z,8.7
2017-03-09T01:13:18.497Z,8.7
2017-03-09T01:14:20.383Z,8.7
2017-03-09T01:15:23.123Z,8.7
2017-03-09T01:16:24.981Z,8.7
2017-03-09T01:17:26.834Z,8.7
2017-03-09T01:18:28.757Z,8.7
2017-03-09T01:19:31.067Z,8.7
2017-03-09T01:20:33.334Z,8.7
2017-03-09T01:21:35.228Z,8.7
2017-03-09T01:22:37.515Z,8.7
2017-03-09T01:23:39.816Z,8.7
2017-03-09T01:24:41.657Z,8.7
2017-03-09T01:25:43.963Z,8.8
2017-03-09T01:26:45.859Z,8.8
2017-03-09T01:27:47.752Z,8.8
2017-03-09T01:28:50.028Z,8.8
2017-03-09T01:29:52.301Z,8.8
2017-03-09T01:30:55.056Z,8.8
2017-03-09T01:31:57.331Z,8.8
2017-03-09T01:32:59.220Z,8.8
2017-03-09T01:34:01.083Z,8.8
2017-03-09T01:35:03.362Z,8.8
2017-03-09T01:36:05.645Z,8.8
2017-03-09T01:37:07.943Z,8.9
2017-03-09T01:38:10.205Z,8.9
2017-03-09T01:39:12.116Z,8.9
2017-03-09T01:40:13.967Z,8.9
2017-03-09T01:41:15.834Z,8.9
2017-03-09T01:42:18.093Z,8.9
2017-03-09T01:43:19.936Z,8.9
2017-03-09T01:44:22.222Z,8.9
2017-03-09T01:45:24.097Z,8.9
2017-03-09T01:46:26.395Z,8.9
2017-03-09T01:47:29.118Z,9
2017-03-09T01:48:31.413Z,9
2017-03-09T01:49:33.315Z,9
2017-03-09T01:50:35.222Z,9
2017-03-09T01:51:37.080Z,8.9
2017-03-09T01:52:38.932Z,8.9
2017-03-09T01:53:41.652Z,8.9
2017-03-09T01:54:43.937Z,8.9
2017-03-09T01:55:45.795Z,8.8
2017-03-09T01:56:48.105Z,8.8
2017-03-09T01:57:49.988Z,8.8
2017-03-09T01:58:51.848Z,8.8
2017-03-09T01:59:53.727Z,8.7
2017-03-09T02:00:55.568Z,8.7
2017-03-09T02:01:57.444Z,8.7
2017-03-09T02:02:59.310Z,8.7
2017-03-09T02:04:01.627Z,8.7
2017-03-09T02:05:03.478Z,8.7
2017-03-09T02:06:05.776Z,8.7
2017-03-09T02:07:07.634Z,8.7
2017-03-09T02:08:10.337Z,8.7
2017-03-09T02:09:12.201Z,8.8
2017-03-09T02:10:14.491Z,8.8
2017-03-09T02:11:16.361Z,8.8
2017-03-09T02:12:18.235Z,8.8
2017-03-09T02:13:20.110Z,8.8
2017-03-09T02:14:22.808Z,8.8
2017-03-09T02:15:24.682Z,8.8
2017-03-09T02:16:26.960Z,8.8
2017-03-09T02:17:28.817Z,8.8
2017-03-09T02:18:30.678Z,8.8
2017-03-09T02:19:32.542Z,8.8
2017-03-09T02:20:34.400Z,8.8
2017-03-09T02:21:36.263Z,8.8
2017-03-09T02:22:38.143Z,8.8
2017-03-09T02:23:40.003Z,8.8
2017-03-09T02:24:41.892Z,8.8
2017-03-09T02:25:43.772Z,8.8
2017-03-09T02:26:45.646Z,8.8
2017-03-09T02:27:47.924Z,8.8
2017-03-09T02:28:49.815Z,8.8
2017-03-09T02:29:51.662Z,8.8
2017-03-09T02:30:53.556Z,8.8
2017-03-09T02:31:55.843Z,8.8
2017-03-09T02:32:57.698Z,8.8
2017-03-09T02:33:59.983Z,8.8
2017-03-09T02:35:03.104Z,8.8
2017-03-09T02:36:05.441Z,8.8
2017-03-09T02:37:07.723Z,8.9
2017-03-09T02:38:09.580Z,8.8
2017-03-09T02:39:11.858Z,8.8
2017-03-09T02:40:13.712Z,8.8
2017-03-09T02:41:15.570Z,8.8
2017-03-09T02:42:17.427Z,8.8
2017-03-09T02:43:19.302Z,8.8
2017-03-09T02:44:21.183Z,8.7
2017-03-09T02:45:23.046Z,8.7
2017-03-09T02:46:24.895Z,8.7
2017-03-09T02:47:27.144Z,8.7
2017-03-09T02:48:29.423Z,8.6
2017-03-09T02:49:31.291Z,8.6
2017-03-09T02:50:33.148Z,8.6
2017-03-09T02:51:35.004Z,8.6
2017-03-09T02:52:37.298Z,8.6
2017-03-09T02:53:39.160Z,8.6
2017-03-09T02:54:41.045Z,8.6
2017-03-09T02:55:42.932Z,8.5
2017-03-09T02:56:45.223Z,8.5
2017-03-09T02:57:47.081Z,8.5
2017-03-09T02:58:48.961Z,8.5
2017-03-09T02:59:50.839Z,8.5
2017-03-09T03:00:53.519Z,8.5
2017-03-09T03:01:55.395Z,8.5
2017-03-09T03:02:58.101Z,8.5
2017-03-09T03:04:00.803Z,8.5
2017-03-09T03:05:02.746Z,8.5
2017-03-09T03:06:05.027Z,8.5
2017-03-09T03:07:07.349Z,8.5
2017-03-09T03:08:09.233Z,8.5
2017-03-09T03:09:11.110Z,8.5
2017-03-09T03:10:13.844Z,8.5
2017-03-09T03:11:15.687Z,8.5
2017-03-09T03:12:17.990Z,8.5
2017-03-09T03:13:20.275Z,8.5
2017-03-09T03:14:22.118Z,8.5
2017-03-09T03:15:23.966Z,8.5
2017-03-09T03:16:25.810Z,8.5
2017-03-09T03:17:27.704Z,8.5
2017-03-09T03:18:29.538Z,8.5
2017-03-09T03:19:31.834Z,8.5
2017-03-09T03:20:33.697Z,8.5
2017-03-09T03:21:35.566Z,8.6
2017-03-09T03:22:38.302Z,8.6
2017-03-09T03:23:40.167Z,8.6
2017-03-09T03:24:42.036Z,8.6
2017-03-09T03:25:44.339Z,8.6
2017-03-09T03:26:46.627Z,8.6
2017-03-09T03:27:48.937Z,8.6
2017-03-09T03:28:50.784Z,8.6
2017-03-09T03:29:52.692Z,8.6
2017-03-09T03:30:54.584Z,8.6
2017-03-09T03:31:57.287Z,8.6
2017-03-09T03:32:59.143Z,8.6
2017-03-09T03:34:01.043Z,8.6
2017-03-09T03:35:02.926Z,8.6
2017-03-09T03:36:04.777Z,8.7
2017-03-09T03:37:06.626Z,8.7
2017-03-09T03:38:08.505Z,8.7
2017-03-09T03:39:10.773Z,8.7
2017-03-09T03:40:13.089Z,8.7
2017-03-09T03:41:14.955Z,8.7
2017-03-09T03:42:16.824Z,8.7
2017-03-09T03:43:19.531Z,8.7
2017-03-09T03:44:22.105Z,8.7
2017-03-09T03:45:23.984Z,8.7
2017-03-09T03:46:26.282Z,8.7
2017-03-09T03:47:28.133Z,8.7
2017-03-09T03:48:29.996Z,8.7
2017-03-09T03:49:31.859Z,8.7
2017-03-09T03:50:33.731Z,8.7
2017-03-09T03:51:35.604Z,8.7
2017-03-09T03:52:37.475Z,8.7
2017-03-09T03:53:39.331Z,8.7
2017-03-09T03:54:41.627Z,8.7
2017-03-09T03:55:43.498Z,8.7
2017-03-09T03:56:45.348Z,8.7
2017-03-09T03:57:47.232Z,8.7
2017-03-09T03:58:49.553Z,8.8
2017-03-09T03:59:51.845Z,8.8
2017-03-09T04:00:53.714Z,8.8
2017-03-09T04:01:55.992Z,8.8
2017-03-09T04:02:58.342Z,8.8
2017-03-09T04:04:00.711Z,8.8
2017-03-09T04:05:03.064Z,8.8
2017-03-09T04:06:04.935Z,8.8
2017-03-09T04:07:06.800Z,8.8
2017-03-09T04:08:08.704Z,8.8
2017-03-09T04:09:11.023Z,8.8
2017-03-09T04:10:13.289Z,8.8
2017-03-09T04:11:15.169Z,8.8
2017-03-09T04:12:17.022Z,8.8
2017-03-09T04:13:19.302Z,8.8
2017-03-09T04:14:21.163Z,8.8
2017-03-09T04:15:23.479Z,8.8
2017-03-09T04:16:26.178Z,8.8
2017-03-09T04:17:28.476Z,8.7
2017-03-09T04:18:30.335Z,8.8
2017-03-09T04:19:32.633Z,8.7
2017-03-09T04:20:34.509Z,8.7
2017-03-09T04:21:36.395Z,8.7
2017-03-09T04:22:38.256Z,8.7
2017-03-09T04:23:40.131Z,8.7
2017-03-09T04:24:41.999Z,8.7
2017-03-09T04:25:43.860Z,8.7
2017-03-09T04:26:46.169Z,8.7
2017-03-09T04:27:48.044Z,8.7
2017-03-09T04:28:49.907Z,8.7
2017-03-09T04:29:51.758Z,8.7
2017-03-09T04:30:54.047Z,8.7
2017-03-09T04:31:55.919Z,8.7
2017-03-09T04:32:57.769Z,8.8
2017-03-09T04:33:59.638Z,8.7
2017-03-09T04:35:01.544Z,8.8
2017-03-09T04:36:03.392Z,8.8
2017-03-09T04:37:05.261Z,8.8
2017-03-09T04:38:07.533Z,8.8
2017-03-09T04:39:09.824Z,8.8
2017-03-09T04:40:12.134Z,8.8
2017-03-09T04:41:13.995Z,8.8
2017-03-09T04:42:15.902Z,8.9
2017-03-09T04:43:18.215Z,8.9
2017-03-09T04:44:20.099Z,8.9
2017-03-09T04:45:22.371Z,8.9
2017-03-09T04:46:24.650Z,8.9
2017-03-09T04:47:26.539Z,8.8
2017-03-09T04:48:28.409Z,8.8
2017-03-09T04:49:30.703Z,8.9
2017-03-09T04:50:32.587Z,8.8
2017-03-09T04:51:34.452Z,8.8
2017-03-09T04:52:36.323Z,8.8
2017-03-09T04:53:38.628Z,8.8
2017-03-09T04:54:40.927Z,8.8
2017-03-09T04:55:42.794Z,8.8
2017-03-09T04:56:44.658Z,8.8
2017-03-09T04:57:46.951Z,8.8
2017-03-09T04:58:49.238Z,8.8
2017-03-09T04:59:51.518Z,8.8
2017-03-09T05:00:53.384Z,8.8
2017-03-09T05:01:55.233Z,8.8
2017-03-09T05:02:57.085Z,8.8
2017-03-09T05:03:58.973Z,8.8
2017-03-09T05:05:00.848Z,8.8
2017-03-09T05:06:03.133Z,8.8
2017-03-09T05:07:05.011Z,8.8
2017-03-09T05:08:06.876Z,8.8
2017-03-09T05:09:08.761Z,8.7
2017-03-09T05:10:10.607Z,8.7
2017-03-09T05:11:12.499Z,8.7
2017-03-09T05:12:14.797Z,8.7
2017-03-09T05:13:17.082Z,8.7
2017-03-09T05:14:18.975Z,8.7
2017-03-09T05:15:21.269Z,8.7
2017-03-09T05:16:23.555Z,8.7
2017-03-09T05:17:25.404Z,8.7
2017-03-09T05:18:27.264Z,8.7
2017-03-09T05:19:29.127Z,8.7
2017-03-09T05:20:31.394Z,8.7
2017-03-09T05:21:33.263Z,8.6
2017-03-09T05:22:35.185Z,8.6
2017-03-09T05:23:37.056Z,8.6
2017-03-09T05:24:38.933Z,8.6
2017-03-09T05:25:41.236Z,8.7
2017-03-09T05:26:43.101Z,8.7
2017-03-09T05:27:44.967Z,8.6
2017-03-09T05:28:46.831Z,8.7
2017-03-09T05:29:48.703Z,8.7
2017-03-09T05:30:50.578Z,8.7
2017-03-09T05:31:53.315Z,8.7
2017-03-09T05:32:55.148Z,8.7
2017-03-09T05:33:57.459Z,8.7
2017-03-09T05:34:59.331Z,8.8
2017-03-09T05:36:01.644Z,8.7
2017-03-09T05:37:03.968Z,8.8
2017-03-09T05:38:05.834Z,8.7
2017-03-09T05:39:08.131Z,8.7
2017-03-09T05:40:10.019Z,8.7
2017-03-09T05:41:11.853Z,8.7
2017-03-09T05:42:14.556Z,8.7
2017-03-09T05:43:16.845Z,8.7
2017-03-09T05:44:18.729Z,8.6
2017-03-09T05:45:21.003Z,8.6
2017-03-09T05:46:22.876Z,8.6
2017-03-09T05:47:25.184Z,8.6
2017-03-09T05:48:27.466Z,8.6
2017-03-09T05:49:29.309Z,8.6
2017-03-09T05:50:31.626Z,8.6
2017-03-09T05:51:33.476Z,8.6
2017-03-09T05:52:35.360Z,8.6
2017-03-09T05:53:37.659Z,8.6
2017-03-09T05:54:39.534Z,8.5
2017-03-09T05:55:41.419Z,8.6
2017-03-09T05:56:43.693Z,8.6
2017-03-09T05:57:45.986Z,8.6
2017-03-09T05:58:47.854Z,8.6
2017-03-09T05:59:49.719Z,8.6
2017-03-09T06:00:51.588Z,8.6
2017-03-09T06:01:53.472Z,8.6
2017-03-09T06:02:55.770Z,8.7
2017-03-09T06:03:57.634Z,8.7
2017-03-09T06:04:59.923Z,8.7
2017-03-09T06:06:03.056Z,8.7
2017-03-09T06:07:04.939Z,8.7
2017-03-09T06:08:07.221Z,8.7
2017-03-09T06:09:09.512Z,8.7
2017-03-09T06:10:11.786Z,8.7
2017-03-09T06:11:13.659Z,8.7
2017-03-09T06:12:15.562Z,8.7
2017-03-09T06:13:17.418Z,8.7
2017-03-09T06:14:19.294Z,8.7
2017-03-09T06:15:21.143Z,8.7
2017-03-09T06:16:23.013Z,8.7
2017-03-09T06:17:24.893Z,8.7
2017-03-09T06:18:27.196Z,8.7
2017-03-09T06:19:29.486Z,8.7
2017-03-09T06:20:31.778Z,8.7
2017-03-09T06:21:33.628Z,8.7
2017-03-09T06:22:35.929Z,8.7
2017-03-09T06:23:38.257Z,8.7
2017-03-09T06:24:40.109Z,8.7
2017-03-09T06:25:42.070Z,8.8
2017-03-09T06:26:44.534Z,8.8
2017-03-09T06:27:46.486Z,8.8
2017-03-09T06:28:48.365Z,8.9
2017-03-09T06:29:50.284Z,8.9
2017-03-09T06:30:52.248Z,8.9
2017-03-09T06:31:54.141Z,8.9
2017-03-09T06:32:56.453Z,9
2017-03-09T06:33:58.330Z,9
2017-03-09T06:35:00.239Z,9
2017-03-09T06:36:02.117Z,9
2017-03-09T06:37:04.500Z,9
2017-03-09T06:38:06.402Z,9
2017-03-09T06:39:08.302Z,9
2017-03-09T06:40:11.121Z,9
2017-03-09T06:41:13.264Z,9
2017-03-09T06:42:15.475Z,9.1
2017-03-09T06:43:18.010Z,9.1
2017-03-09T06:44:20.151Z,9
2017-03-09T06:45:23.105Z,9
2017-03-09T06:46:25.771Z,9
2017-03-09T06:47:27.794Z,9
2017-03-09T06:48:30.078Z,9
2017-03-09T06:49:32.679Z,9
2017-03-09T06:50:34.823Z,9
2017-03-09T06:51:37.617Z,9
2017-03-09T06:52:39.781Z,9
2017-03-09T06:53:42.145Z,9
2017-03-09T06:54:44.541Z,9
2017-03-09T06:55:47.073Z,8.9
2017-03-09T06:56:49.560Z,8.9
2017-03-09T06:57:52.052Z,8.9
2017-03-09T06:58:54.392Z,8.9
2017-03-09T06:59:56.762Z,8.9
2017-03-09T07:00:59.230Z,8.9
2017-03-09T07:02:02.194Z,9
2017-03-09T07:03:04.462Z,8.9
2017-03-09T07:04:07.117Z,9
2017-03-09T07:05:09.651Z,8.9
2017-03-09T07:06:11.943Z,8.9
2017-03-09T07:07:14.059Z,8.9
2017-03-09T07:08:17.069Z,8.9
2017-03-09T07:09:19.619Z,8.9
2017-03-09T07:10:22.363Z,8.9
2017-03-09T07:11:24.237Z,8.9
2017-03-09T07:12:26.104Z,8.9
2017-03-09T07:13:28.211Z,8.9
2017-03-09T07:14:30.095Z,8.9
2017-03-09T07:15:32.042Z,8.9
2017-03-09T07:16:34.138Z,8.9
2017-03-09T07:17:36.090Z,8.9
2017-03-09T07:18:37.955Z,8.9
2017-03-09T07:19:40.431Z,9
2017-03-09T07:20:42.297Z,8.9
2017-03-09T07:21:44.615Z,8.9
2017-03-09T07:22:46.598Z,8.9
2017-03-09T07:23:48.878Z,8.9
2017-03-09T07:24:50.764Z,8.9
2017-03-09T07:25:52.774Z,8.9
2017-03-09T07:26:54.724Z,8.9
2017-03-09T07:27:56.585Z,8.9
2017-03-09T07:28:58.619Z,8.9
2017-03-09T07:30:00.916Z,8.8
2017-03-09T07:31:02.788Z,8.8
2017-03-09T07:32:05.096Z,8.8
2017-03-09T07:33:07.386Z,8.8
2017-03-09T07:34:09.851Z,8.8
2017-03-09T07:35:12.137Z,8.8
2017-03-09T07:36:14.861Z,8.8
2017-03-09T07:37:16.717Z,8.8
2017-03-09T07:38:18.688Z,8.8
2017-03-09T07:39:20.993Z,8.8
2017-03-09T07:40:23.014Z,8.8
2017-03-09T07:41:25.323Z,8.9
2017-03-09T07:42:27.631Z,8.9
2017-03-09T07:43:29.682Z,8.8
2017-03-09T07:44:31.592Z,8.8
2017-03-09T07:45:33.506Z,8.9
2017-03-09T07:46:35.910Z,8.8
2017-03-09T07:47:37.907Z,8.9
2017-03-09T07:48:39.774Z,8.9
2017-03-09T07:49:42.087Z,8.9
2017-03-09T07:50:44.023Z,8.8
2017-03-09T07:51:46.092Z,8.8
2017-03-09T07:52:47.950Z,8.8
2017-03-09T07:53:49.842Z,8.8
2017-03-09T07:54:52.128Z,8.8
2017-03-09T07:55:54.220Z,8.8
2017-03-09T07:56:56.082Z,8.8
2017-03-09T07:57:57.986Z,8.9
2017-03-09T07:58:59.834Z,8.9
2017-03-09T08:00:01.829Z,8.9
2017-03-09T08:01:04.113Z,8.9
2017-03-09T08:02:06.021Z,9
2017-03-09T08:03:07.893Z,9
2017-03-09T08:04:10.002Z,9
2017-03-09T08:05:12.291Z,9
2017-03-09T08:06:14.157Z,9
2017-03-09T08:07:16.127Z,9
2017-03-09T08:08:18.114Z,9.1
2017-03-09T08:09:20.002Z,9.1
2017-03-09T08:10:21.947Z,9.1
2017-03-09T08:11:23.813Z,9.1
2017-03-09T08:12:25.823Z,9.1
2017-03-09T08:13:27.849Z,9.1
2017-03-09T08:14:29.698Z,9.1
2017-03-09T08:15:31.554Z,9.2
2017-03-09T08:16:33.499Z,9.2
2017-03-09T08:17:35.580Z,9.2
2017-03-09T08:18:37.464Z,9.2
2017-03-09T08:19:39.336Z,9.2
2017-03-09T08:20:41.261Z,9.2
2017-03-09T08:21:43.667Z,9.3
2017-03-09T08:22:45.640Z,9.3
2017-03-09T08:23:47.498Z,9.3
2017-03-09T08:24:49.795Z,9.3
2017-03-09T08:25:51.943Z,9.3
2017-03-09T08:26:54.691Z,9.4
2017-03-09T08:27:57.016Z,9.4
2017-03-09T08:28:58.975Z,9.4
2017-03-09T08:30:01.254Z,9.4
2017-03-09T08:31:03.132Z,9.3
2017-03-09T08:32:05.126Z,9.4
2017-03-09T08:33:07.058Z,9.4
2017-03-09T08:34:09.089Z,9.4
2017-03-09T08:35:11.097Z,9.5
2017-03-09T08:36:12.965Z,9.5
2017-03-09T08:37:14.825Z,9.6
2017-03-09T08:40:20.874Z,9.6
2017-03-09T08:41:22.756Z,9.6
2017-03-09T08:42:25.452Z,9.7
2017-03-09T08:43:27.328Z,9.7
2017-03-09T08:44:29.327Z,9.7
2017-03-09T08:45:32.043Z,9.7
2017-03-09T08:46:34.022Z,9.7
2017-03-09T08:47:35.903Z,9.7
2017-03-09T08:48:37.816Z,9.7
2017-03-09T08:49:40.235Z,9.7
2017-03-09T08:50:42.095Z,9.7
2017-03-09T08:51:43.967Z,9.7
2017-03-09T08:52:46.814Z,9.8
2017-03-09T08:53:49.126Z,9.8
2017-03-09T08:54:51.425Z,9.8
2017-03-09T08:55:54.138Z,9.8
2017-03-09T08:56:56.000Z,9.8
2017-03-09T08:57:57.906Z,9.9
2017-03-09T08:58:59.843Z,9.9
2017-03-09T09:00:02.585Z,9.9
2017-03-09T09:01:04.864Z,9.9
2017-03-09T09:02:07.168Z,9.9
2017-03-09T09:03:09.020Z,9.9
2017-03-09T09:04:10.893Z,9.9
2017-03-09T09:05:14.014Z,9.9
2017-03-09T09:06:15.872Z,10
2017-03-09T09:07:17.806Z,10
2017-03-09T09:08:20.115Z,10
2017-03-09T09:09:22.052Z,10
2017-03-09T09:10:24.442Z,10
2017-03-09T09:11:26.323Z,10
2017-03-09T09:12:28.318Z,10
2017-03-09T09:13:30.646Z,10
2017-03-09T09:14:32.526Z,10
2017-03-09T09:15:34.541Z,10.1
2017-03-09T09:16:36.439Z,10.1
2017-03-09T09:17:38.296Z,10.1
2017-03-09T09:18:40.273Z,10.1
2017-03-09T09:19:42.165Z,10.1
2017-03-09T09:20:44.052Z,10.1
2017-03-09T09:21:46.371Z,10.2
2017-03-09T09:22:48.271Z,10.2
2017-03-09T09:23:50.581Z,10.2
2017-03-09T09:24:52.531Z,10.1
2017-03-09T09:25:54.404Z,10.2
2017-03-09T09:26:56.702Z,10.2
2017-03-09T09:27:58.695Z,10.2
2017-03-09T09:29:00.569Z,10.2
2017-03-09T09:30:03.324Z,10.2
2017-03-09T09:31:05.712Z,10.2
2017-03-09T09:32:07.592Z,10.2
2017-03-09T09:33:09.436Z,10.2
2017-03-09T09:34:11.319Z,10.2
2017-03-09T09:35:13.658Z,10.2
2017-03-09T09:36:15.527Z,10.2
2017-03-09T09:37:17.920Z,10.2
2017-03-09T09:38:19.953Z,10.2
2017-03-09T09:39:22.323Z,10.2
2017-03-09T09:40:24.293Z,10.2
2017-03-09T09:41:26.180Z,10.2
2017-03-09T09:42:28.067Z,10.2
2017-03-09T09:43:30.008Z,10.2
2017-03-09T09:44:31.871Z,10.2
2017-03-09T09:45:33.859Z,10.2
2017-03-09T09:46:35.740Z,10.2
2017-03-09T09:47:37.639Z,10.2
2017-03-09T09:48:39.486Z,10.2
2017-03-09T09:49:41.357Z,10.2
2017-03-09T09:50:43.652Z,10.2
2017-03-09T09:51:45.940Z,10.2
2017-03-09T09:52:47.919Z,10.2
2017-03-09T09:53:49.785Z,10.2
2017-03-09T09:54:51.669Z,10.2
2017-03-09T09:55:54.395Z,10.2
2017-03-09T09:56:56.275Z,10.2
2017-03-09T09:57:58.135Z,10.2
2017-03-09T09:59:00.019Z,10.2
2017-03-09T10:00:02.016Z,10.2
2017-03-09T10:01:04.751Z,10.2
2017-03-09T10:02:06.634Z,10.3
2017-03-09T10:03:08.987Z,10.3
2017-03-09T10:04:11.271Z,10.4
2017-03-09T10:05:13.155Z,10.4
2017-03-09T10:06:15.010Z,10.4
2017-03-09T10:07:17.307Z,10.4
2017-03-09T10:08:19.583Z,10.4
2017-03-09T10:09:22.034Z,10.4
2017-03-09T10:10:23.890Z,10.5
2017-03-09T10:11:26.206Z,10.6
2017-03-09T10:12:28.085Z,10.7
2017-03-09T10:13:29.959Z,10.7
2017-03-09T10:14:32.256Z,10.7
2017-03-09T10:15:34.562Z,10.8
2017-03-09T10:16:37.382Z,10.8
2017-03-09T10:17:39.382Z,10.9
2017-03-09T10:18:41.276Z,10.9
2017-03-09T10:19:43.305Z,11
2017-03-09T10:20:46.067Z,11.1
2017-03-09T10:21:48.359Z,11.1
2017-03-09T10:22:50.229Z,11.2
2017-03-09T10:23:52.126Z,11.3
2017-03-09T10:24:54.833Z,11.4
2017-03-09T10:25:56.725Z,11.5
2017-03-09T10:26:58.579Z,11.6
2017-03-09T10:28:00.558Z,11.7
2017-03-09T10:29:02.851Z,11.7
2017-03-09T10:30:04.720Z,11.7
2017-03-09T10:31:06.643Z,11.7
2017-03-09T10:32:08.523Z,11.7
2017-03-09T10:33:10.544Z,11.7
2017-03-09T10:34:12.455Z,11.7
2017-03-09T10:35:14.318Z,11.7
2017-03-09T10:36:16.200Z,11.6
2017-03-09T10:37:18.056Z,11.6
2017-03-09T10:38:19.914Z,11.5
2017-03-09T10:39:21.864Z,11.5
2017-03-09T10:40:23.724Z,11.4
2017-03-09T10:41:26.166Z,11.4
2017-03-09T10:42:28.039Z,11.4
2017-03-09T10:43:29.940Z,11.4
2017-03-09T10:44:31.783Z,11.4
2017-03-09T10:45:34.088Z,11.5
2017-03-09T10:46:36.034Z,11.5
2017-03-09T10:47:37.946Z,11.6
2017-03-09T10:48:39.807Z,11.6
2017-03-09T10:49:42.120Z,11.7
2017-03-09T10:50:43.982Z,11.7
2017-03-09T10:51:45.858Z,11.8
2017-03-09T10:52:47.721Z,11.8
2017-03-09T10:53:49.774Z,11.8
2017-03-09T10:54:52.488Z,11.8
2017-03-09T10:55:54.363Z,11.8
2017-03-09T10:56:56.242Z,11.8
2017-03-09T10:57:58.635Z,11.8
2017-03-09T10:59:00.494Z,11.8
2017-03-09T11:00:02.809Z,11.8
2017-03-09T11:01:05.156Z,11.7
2017-03-09T11:02:07.470Z,11.7
2017-03-09T11:03:09.428Z,11.7
2017-03-09T11:04:11.702Z,11.7
2017-03-09T11:05:13.583Z,11.7
2017-03-09T11:06:15.926Z,11.6
2017-03-09T11:07:18.006Z,11.6
2017-03-09T11:08:20.325Z,11.6
2017-03-09T11:09:22.493Z,11.5
2017-03-09T11:10:25.254Z,11.5
2017-03-09T11:11:27.134Z,11.5
2017-03-09T11:12:29.015Z,11.4
2017-03-09T11:13:30.904Z,11.4
2017-03-09T11:14:33.227Z,11.3
2017-03-09T11:15:35.119Z,11.3
2017-03-09T11:16:37.434Z,11.4
2017-03-09T11:17:39.940Z,11.4
2017-03-09T11:18:41.794Z,11.4
2017-03-09T11:19:44.508Z,11.4
2017-03-09T11:20:46.501Z,11.4
2017-03-09T11:21:48.815Z,11.5
2017-03-09T11:22:50.702Z,11.5
2017-03-09T11:23:52.584Z,11.5
2017-03-09T11:24:54.532Z,11.6
2017-03-09T11:25:56.827Z,11.6
2017-03-09T11:26:58.704Z,11.6
2017-03-09T11:28:00.989Z,11.7
2017-03-09T11:29:03.313Z,11.7
2017-03-09T11:30:05.206Z,11.7
2017-03-09T11:31:07.182Z,11.8
2017-03-09T11:32:09.907Z,11.8
2017-03-09T11:33:11.776Z,11.8
2017-03-09T11:34:13.685Z,11.8
2017-03-09T11:35:15.671Z,11.8
2017-03-09T11:36:17.563Z,11.8
2017-03-09T11:37:19.428Z,11.8
2017-03-09T11:38:21.828Z,11.8
2017-03-09T11:39:23.747Z,11.7
2017-03-09T11:40:26.047Z,11.7
2017-03-09T11:41:28.773Z,11.6
2017-03-09T11:42:31.090Z,11.6
2017-03-09T11:43:33.375Z,11.6
2017-03-09T11:44:35.349Z,11.6
2017-03-09T11:45:38.087Z,11.6
2017-03-09T11:46:39.944Z,11.5
2017-03-09T11:47:41.828Z,11.5
2017-03-09T11:48:43.818Z,11.5
2017-03-09T11:49:45.671Z,11.6
2017-03-09T11:50:47.966Z,11.6
2017-03-09T11:51:49.879Z,11.6
2017-03-09T11:52:51.857Z,11.6
2017-03-09T11:53:54.995Z,11.6
2017-03-09T11:54:56.914Z,11.6
2017-03-09T11:55:58.851Z,11.6
2017-03-09T11:57:01.565Z,11.6
2017-03-09T11:58:04.725Z,11.6
2017-03-09T11:59:06.623Z,11.6
2017-03-09T12:00:08.530Z,11.7
2017-03-09T12:01:10.528Z,11.7
2017-03-09T12:02:12.408Z,11.7
2017-03-09T12:03:14.277Z,11.7
2017-03-09T12:04:16.164Z,11.7
2017-03-09T12:05:18.197Z,11.7
2017-03-09T12:06:20.068Z,11.7
2017-03-09T12:07:21.956Z,11.7
2017-03-09T12:08:23.830Z,11.7
2017-03-09T12:09:25.718Z,11.7
2017-03-09T12:10:28.019Z,11.7
2017-03-09T12:11:29.912Z,11.7
2017-03-09T12:12:32.239Z,11.7
2017-03-09T12:13:34.146Z,11.7
2017-03-09T12:14:36.015Z,11.8
2017-03-09T12:15:37.896Z,11.7
2017-03-09T12:16:39.747Z,11.8
2017-03-09T12:17:41.639Z,11.8
2017-03-09T12:18:43.488Z,11.8
2017-03-09T12:19:45.384Z,11.8
2017-03-09T12:20:47.264Z,11.9
2017-03-09T12:21:49.587Z,11.9
2017-03-09T12:22:51.878Z,12
2017-03-09T12:23:53.764Z,12
2017-03-09T12:24:55.629Z,12
2017-03-09T12:25:57.488Z,12.1
2017-03-09T12:26:59.378Z,12.1
2017-03-09T12:28:01.247Z,12.1
2017-03-09T12:29:03.113Z,12.2
2017-03-09T12:30:05.404Z,12.2
2017-03-09T12:31:07.301Z,12.2
2017-03-09T12:32:09.178Z,12.3
2017-03-09T12:33:11.457Z,12.3
2017-03-09T12:34:13.779Z,12.4
2017-03-09T12:35:15.642Z,12.4
2017-03-09T12:36:17.529Z,12.5
2017-03-09T12:37:19.405Z,12.5
2017-03-09T12:38:21.716Z,12.6
2017-03-09T12:39:24.067Z,12.6
2017-03-09T12:40:25.933Z,12.6
2017-03-09T12:41:28.242Z,12.7
2017-03-09T12:42:30.125Z,12.7
2017-03-09T12:43:31.983Z,12.7
2017-03-09T12:44:33.860Z,12.7
2017-03-09T12:45:35.736Z,12.7
2017-03-09T12:46:37.597Z,12.7
2017-03-09T12:47:39.460Z,12.7
2017-03-09T12:48:41.320Z,12.8
2017-03-09T12:49:43.203Z,12.8
2017-03-09T12:50:45.951Z,12.8
2017-03-09T12:51:47.813Z,12.8
2017-03-09T12:52:49.681Z,12.8
2017-03-09T12:53:51.989Z,12.8
2017-03-09T12:54:54.715Z,12.8
2017-03-09T12:55:56.572Z,12.8
2017-03-09T12:56:58.452Z,12.8
2017-03-09T12:58:00.325Z,12.8
2017-03-09T12:59:02.219Z,12.8
2017-03-09T13:00:04.065Z,12.7
2017-03-09T13:01:06.376Z,12.7
2017-03-09T13:02:08.252Z,12.7
2017-03-09T13:03:10.117Z,12.7
2017-03-09T13:04:11.987Z,12.7
2017-03-09T13:05:13.839Z,12.7
2017-03-09T13:06:15.716Z,12.8
2017-03-09T13:07:17.597Z,12.8
2017-03-09T13:08:19.479Z,12.8
2017-03-09T13:09:21.790Z,12.9
2017-03-09T13:10:24.078Z,12.9
2017-03-09T13:11:25.953Z,12.9
2017-03-09T13:12:27.812Z,13
2017-03-09T13:13:30.088Z,13
2017-03-09T13:14:32.392Z,13
2017-03-09T13:15:34.277Z,13
2017-03-09T13:16:36.150Z,13
2017-03-09T13:17:38.019Z,13
2017-03-09T13:18:40.319Z,13
2017-03-09T13:19:42.173Z,12.9
2017-03-09T13:20:44.096Z,12.9
2017-03-09T13:21:45.961Z,12.8
2017-03-09T13:22:48.301Z,12.8
2017-03-09T13:23:50.182Z,12.8
2017-03-09T13:24:52.049Z,12.8
2017-03-09T13:25:53.918Z,12.8
2017-03-09T13:26:55.800Z,12.8
2017-03-09T13:27:57.693Z,12.7
2017-03-09T13:28:59.581Z,12.7
2017-03-09T13:30:01.501Z,12.7
2017-03-09T13:31:03.388Z,12.7
2017-03-09T13:32:05.258Z,12.8
2017-03-09T13:33:07.136Z,12.8
2017-03-09T13:34:09.023Z,12.8
2017-03-09T13:35:10.945Z,12.9
2017-03-09T13:36:12.812Z,13
2017-03-09T13:37:15.052Z,13.1
2017-03-09T13:38:17.125Z,13.1
2017-03-09T13:39:19.060Z,13.2
2017-03-09T13:40:21.797Z,13.2
2017-03-09T13:41:23.658Z,13.3
2017-03-09T13:42:25.953Z,13.3
2017-03-09T13:43:27.839Z,13.3
2017-03-09T13:44:30.170Z,13.4
2017-03-09T13:45:32.044Z,13.4
2017-03-09T13:46:33.940Z,13.5
2017-03-09T13:47:35.819Z,13.5
2017-03-09T13:48:37.715Z,13.6
2017-03-09T13:49:39.681Z,13.6
2017-03-09T13:50:41.566Z,13.6
2017-03-09T13:51:43.490Z,13.6
2017-03-09T13:52:45.446Z,13.7
2017-03-09T13:53:47.323Z,13.7
2017-03-09T13:54:49.235Z,13.7
2017-03-09T13:55:51.130Z,13.7
2017-03-09T13:56:53.056Z,13.7
2017-03-09T13:57:54.951Z,13.7
2017-03-09T13:58:56.868Z,13.8
2017-03-09T13:59:58.729Z,13.7
2017-03-09T14:01:01.046Z,13.7
2017-03-09T14:02:03.384Z,13.7
2017-03-09T14:03:05.741Z,13.7
2017-03-09T14:04:08.092Z,13.7
2017-03-09T14:05:10.430Z,13.7
2017-03-09T14:06:12.387Z,13.7
2017-03-09T14:07:14.303Z,13.7
2017-03-09T14:08:16.265Z,13.6
2017-03-09T14:09:18.156Z,13.6
2017-03-09T14:10:20.604Z,13.6